sensor_id;sensor_type;location;lat;lon;timestamp;pressure;altitude;pressure_sealevel;temperature;humidity
34031;BME280;20319;28.466;-16.274;2022-10-16T00:00:33;99746.91;;;24.94;63.14
34031;BME280;20319;28.466;-16.274;2022-10-16T00:02:59;99754.41;;;24.99;62.94
34031;BME280;20319;28.466;-16.274;2022-10-16T00:05:27;99759.66;;;25.00;63.06
34031;BME280;20319;28.466;-16.274;2022-10-16T00:07:52;99762.78;;;25.09;62.61
34031;BME280;20319;28.466;-16.274;2022-10-16T00:10:18;99765.38;;;25.15;62.73
34031;BME280;20319;28.466;-16.274;2022-10-16T00:12:44;99762.72;;;25.20;62.48
34031;BME280;20319;28.466;-16.274;2022-10-16T00:15:09;99763.66;;;25.26;62.39
34031;BME280;20319;28.466;-16.274;2022-10-16T00:17:35;99769.94;;;25.26;62.54
34031;BME280;20319;28.466;-16.274;2022-10-16T00:20:01;99762.22;;;25.23;62.44
34031;BME280;20319;28.466;-16.274;2022-10-16T00:22:26;99760.22;;;25.19;62.52
34031;BME280;20319;28.466;-16.274;2022-10-16T00:24:52;99761.88;;;25.20;62.82
34031;BME280;20319;28.466;-16.274;2022-10-16T00:27:18;99751.09;;;25.13;62.79
34031;BME280;20319;28.466;-16.274;2022-10-16T00:29:43;99738.25;;;25.02;62.77
34031;BME280;20319;28.466;-16.274;2022-10-16T00:32:09;99756.09;;;25.16;62.78
34031;BME280;20319;28.466;-16.274;2022-10-16T00:34:34;99761.31;;;25.18;62.88
34031;BME280;20319;28.466;-16.274;2022-10-16T00:37:00;99752.50;;;25.16;62.87
34031;BME280;20319;28.466;-16.274;2022-10-16T00:39:26;99761.56;;;25.16;63.22
34031;BME280;20319;28.466;-16.274;2022-10-16T00:41:51;99749.06;;;25.09;63.41
34031;BME280;20319;28.466;-16.274;2022-10-16T00:44:43;99747.50;;;25.13;63.24
34031;BME280;20319;28.466;-16.274;2022-10-16T00:47:30;99743.59;;;25.09;63.44
34031;BME280;20319;28.466;-16.274;2022-10-16T00:50:02;99740.28;;;25.07;63.76
34031;BME280;20319;28.466;-16.274;2022-10-16T00:52:31;99731.31;;;25.11;63.44
34031;BME280;20319;28.466;-16.274;2022-10-16T00:54:57;99731.88;;;25.13;63.58
34031;BME280;20319;28.466;-16.274;2022-10-16T00:57:24;99737.59;;;25.12;63.32
34031;BME280;20319;28.466;-16.274;2022-10-16T00:59:50;99727.97;;;25.09;63.66
34031;BME280;20319;28.466;-16.274;2022-10-16T01:02:17;99721.88;;;25.07;63.47
34031;BME280;20319;28.466;-16.274;2022-10-16T01:04:53;99723.31;;;25.10;63.82
34031;BME280;20319;28.466;-16.274;2022-10-16T01:18:08;99728.91;;;25.15;63.90
34031;BME280;20319;28.466;-16.274;2022-10-16T01:29:25;99722.16;;;25.06;63.56
34031;BME280;20319;28.466;-16.274;2022-10-16T01:31:59;99724.06;;;25.05;63.76
34031;BME280;20319;28.466;-16.274;2022-10-16T01:34:49;99724.34;;;25.04;63.94
34031;BME280;20319;28.466;-16.274;2022-10-16T01:37:23;99717.81;;;24.93;63.59
34031;BME280;20319;28.466;-16.274;2022-10-16T01:39:55;99719.34;;;24.84;63.68
34031;BME280;20319;28.466;-16.274;2022-10-16T01:42:27;99710.09;;;24.73;64.23
34031;BME280;20319;28.466;-16.274;2022-10-16T01:44:56;99701.38;;;24.77;64.24
34031;BME280;20319;28.466;-16.274;2022-10-16T01:47:25;99706.22;;;24.86;64.07
34031;BME280;20319;28.466;-16.274;2022-10-16T01:49:52;99708.19;;;24.91;64.29
34031;BME280;20319;28.466;-16.274;2022-10-16T01:52:22;99690.31;;;24.88;64.02
34031;BME280;20319;28.466;-16.274;2022-10-16T01:54:52;99702.84;;;25.01;63.95
34031;BME280;20319;28.466;-16.274;2022-10-16T01:57:20;99705.34;;;25.02;63.34
34031;BME280;20319;28.466;-16.274;2022-10-16T01:59:50;99692.97;;;25.00;63.67
34031;BME280;20319;28.466;-16.274;2022-10-16T02:02:19;99694.31;;;24.97;63.44
34031;BME280;20319;28.466;-16.274;2022-10-16T02:04:55;99702.22;;;24.94;63.30
34031;BME280;20319;28.466;-16.274;2022-10-16T02:07:23;99699.97;;;24.91;63.19
34031;BME280;20319;28.466;-16.274;2022-10-16T02:09:49;99706.25;;;24.91;63.51
34031;BME280;20319;28.466;-16.274;2022-10-16T02:12:24;99696.97;;;24.92;63.58
34031;BME280;20319;28.466;-16.274;2022-10-16T02:14:51;99694.56;;;24.96;63.70
34031;BME280;20319;28.466;-16.274;2022-10-16T02:17:18;99690.06;;;24.90;63.59
34031;BME280;20319;28.466;-16.274;2022-10-16T02:19:45;99699.13;;;24.90;63.18
34031;BME280;20319;28.466;-16.274;2022-10-16T02:22:19;99700.38;;;24.83;63.87
34031;BME280;20319;28.466;-16.274;2022-10-16T02:25:03;99698.16;;;24.80;63.54
34031;BME280;20319;28.466;-16.274;2022-10-16T02:28:00;99684.75;;;24.83;64.04
34031;BME280;20319;28.466;-16.274;2022-10-16T02:30:34;99693.91;;;24.89;63.73
34031;BME280;20319;28.466;-16.274;2022-10-16T02:33:04;99687.00;;;24.86;64.01
34031;BME280;20319;28.466;-16.274;2022-10-16T02:35:32;99688.75;;;24.92;63.68
34031;BME280;20319;28.466;-16.274;2022-10-16T02:37:59;99691.00;;;24.95;63.63
34031;BME280;20319;28.466;-16.274;2022-10-16T02:40:25;99669.53;;;24.92;63.79
34031;BME280;20319;28.466;-16.274;2022-10-16T02:42:53;99668.63;;;24.87;63.86
34031;BME280;20319;28.466;-16.274;2022-10-16T02:45:21;99682.91;;;24.89;63.81
34031;BME280;20319;28.466;-16.274;2022-10-16T02:47:47;99674.09;;;24.87;63.84
34031;BME280;20319;28.466;-16.274;2022-10-16T02:50:13;99670.78;;;24.85;64.24
34031;BME280;20319;28.466;-16.274;2022-10-16T02:52:38;99673.03;;;24.88;64.20
34031;BME280;20319;28.466;-16.274;2022-10-16T02:55:05;99664.31;;;24.91;64.06
34031;BME280;20319;28.466;-16.274;2022-10-16T02:57:30;99662.13;;;24.93;64.36
34031;BME280;20319;28.466;-16.274;2022-10-16T02:59:57;99660.47;;;24.92;64.39
34031;BME280;20319;28.466;-16.274;2022-10-16T03:02:23;99665.13;;;24.91;64.13
34031;BME280;20319;28.466;-16.274;2022-10-16T03:04:48;99664.06;;;24.92;64.35
34031;BME280;20319;28.466;-16.274;2022-10-16T03:07:14;99670.59;;;24.91;64.58
34031;BME280;20319;28.466;-16.274;2022-10-16T03:09:40;99664.22;;;24.86;64.46
34031;BME280;20319;28.466;-16.274;2022-10-16T03:12:06;99657.25;;;24.78;64.64
34031;BME280;20319;28.466;-16.274;2022-10-16T03:14:32;99651.59;;;24.68;65.11
34031;BME280;20319;28.466;-16.274;2022-10-16T03:16:57;99654.47;;;24.61;64.87
34031;BME280;20319;28.466;-16.274;2022-10-16T03:19:24;99654.47;;;24.61;65.41
34031;BME280;20319;28.466;-16.274;2022-10-16T03:21:49;99650.38;;;24.64;64.99
34031;BME280;20319;28.466;-16.274;2022-10-16T03:24:15;99652.31;;;24.63;65.15
34031;BME280;20319;28.466;-16.274;2022-10-16T03:26:41;99646.38;;;24.66;64.80
34031;BME280;20319;28.466;-16.274;2022-10-16T03:29:06;99636.81;;;24.69;64.88
34031;BME280;20319;28.466;-16.274;2022-10-16T03:31:32;99638.47;;;24.70;64.71
34031;BME280;20319;28.466;-16.274;2022-10-16T03:33:58;99636.28;;;24.72;64.90
34031;BME280;20319;28.466;-16.274;2022-10-16T03:36:23;99636.03;;;24.73;64.76
34031;BME280;20319;28.466;-16.274;2022-10-16T03:38:49;99624.44;;;24.66;64.45
34031;BME280;20319;28.466;-16.274;2022-10-16T03:41:15;99636.63;;;24.75;64.20
34031;BME280;20319;28.466;-16.274;2022-10-16T03:43:40;99643.22;;;24.74;63.96
34031;BME280;20319;28.466;-16.274;2022-10-16T03:46:06;99623.94;;;24.69;63.85
34031;BME280;20319;28.466;-16.274;2022-10-16T03:48:32;99625.03;;;24.68;64.26
34031;BME280;20319;28.466;-16.274;2022-10-16T03:50:58;99618.06;;;24.66;63.89
34031;BME280;20319;28.466;-16.274;2022-10-16T03:53:24;99621.06;;;24.64;63.87
34031;BME280;20319;28.466;-16.274;2022-10-16T03:55:50;99619.69;;;24.62;63.65
34031;BME280;20319;28.466;-16.274;2022-10-16T03:58:16;99621.31;;;24.46;64.01
34031;BME280;20319;28.466;-16.274;2022-10-16T04:00:43;99608.78;;;24.34;64.11
34031;BME280;20319;28.466;-16.274;2022-10-16T04:03:09;99607.13;;;24.33;64.24
34031;BME280;20319;28.466;-16.274;2022-10-16T04:05:35;99614.59;;;24.37;64.08
34031;BME280;20319;28.466;-16.274;2022-10-16T04:08:01;99612.09;;;24.36;64.07
34031;BME280;20319;28.466;-16.274;2022-10-16T04:10:26;99601.38;;;24.34;64.07
34031;BME280;20319;28.466;-16.274;2022-10-16T04:12:52;99605.78;;;24.35;64.35
34031;BME280;20319;28.466;-16.274;2022-10-16T04:15:20;99596.31;;;24.26;64.42
34031;BME280;20319;28.466;-16.274;2022-10-16T04:17:46;99608.63;;;24.24;64.68
34031;BME280;20319;28.466;-16.274;2022-10-16T04:20:12;99603.63;;;24.21;64.94
34031;BME280;20319;28.466;-16.274;2022-10-16T04:22:37;99607.78;;;24.23;64.77
34031;BME280;20319;28.466;-16.274;2022-10-16T04:25:03;99603.94;;;24.24;64.96
34031;BME280;20319;28.466;-16.274;2022-10-16T04:27:29;99600.66;;;24.22;64.87
34031;BME280;20319;28.466;-16.274;2022-10-16T04:29:57;99599.81;;;24.22;64.87
34031;BME280;20319;28.466;-16.274;2022-10-16T04:32:23;99605.44;;;24.15;64.56
34031;BME280;20319;28.466;-16.274;2022-10-16T04:34:55;99593.78;;;24.08;65.02
34031;BME280;20319;28.466;-16.274;2022-10-16T04:37:28;99589.41;;;24.07;64.70
34031;BME280;20319;28.466;-16.274;2022-10-16T04:39:54;99596.13;;;24.16;65.22
34031;BME280;20319;28.466;-16.274;2022-10-16T04:42:20;99587.50;;;24.24;65.07
34031;BME280;20319;28.466;-16.274;2022-10-16T04:44:46;99594.75;;;24.30;64.32
34031;BME280;20319;28.466;-16.274;2022-10-16T04:47:12;99588.94;;;24.27;64.62
34031;BME280;20319;28.466;-16.274;2022-10-16T04:49:38;99599.50;;;24.35;64.42
34031;BME280;20319;28.466;-16.274;2022-10-16T04:52:04;99585.84;;;24.23;64.59
34031;BME280;20319;28.466;-16.274;2022-10-16T04:54:29;99598.06;;;24.32;64.59
34031;BME280;20319;28.466;-16.274;2022-10-16T04:56:55;99600.78;;;24.32;64.45
34031;BME280;20319;28.466;-16.274;2022-10-16T04:59:21;99601.03;;;24.31;64.34
34031;BME280;20319;28.466;-16.274;2022-10-16T05:01:47;99595.16;;;24.22;64.94
34031;BME280;20319;28.466;-16.274;2022-10-16T05:04:13;99604.94;;;24.18;64.60
34031;BME280;20319;28.466;-16.274;2022-10-16T05:06:40;99605.53;;;24.20;64.79
34031;BME280;20319;28.466;-16.274;2022-10-16T05:09:06;99595.38;;;24.04;64.71
34031;BME280;20319;28.466;-16.274;2022-10-16T05:11:33;99608.47;;;24.02;64.98
34031;BME280;20319;28.466;-16.274;2022-10-16T05:13:59;99608.47;;;24.02;65.06
34031;BME280;20319;28.466;-16.274;2022-10-16T05:16:25;99615.47;;;24.10;65.31
34031;BME280;20319;28.466;-16.274;2022-10-16T05:18:54;99603.09;;;24.07;65.10
34031;BME280;20319;28.466;-16.274;2022-10-16T05:21:20;99616.41;;;24.15;64.82
34031;BME280;20319;28.466;-16.274;2022-10-16T05:23:46;99589.56;;;24.01;64.43
34031;BME280;20319;28.466;-16.274;2022-10-16T05:26:11;99617.25;;;24.16;64.73
34031;BME280;20319;28.466;-16.274;2022-10-16T05:28:37;99627.09;;;24.17;64.44
34031;BME280;20319;28.466;-16.274;2022-10-16T05:31:07;99626.00;;;24.18;64.47
34031;BME280;20319;28.466;-16.274;2022-10-16T05:33:33;99633.19;;;24.19;64.65
34031;BME280;20319;28.466;-16.274;2022-10-16T05:36:07;99621.88;;;24.15;64.71
34031;BME280;20319;28.466;-16.274;2022-10-16T05:38:34;99630.00;;;24.10;64.47
34031;BME280;20319;28.466;-16.274;2022-10-16T05:41:00;99624.31;;;24.00;64.62
34031;BME280;20319;28.466;-16.274;2022-10-16T05:43:27;99623.38;;;23.95;65.04
34031;BME280;20319;28.466;-16.274;2022-10-16T05:46:04;99634.47;;;23.88;64.91
34031;BME280;20319;28.466;-16.274;2022-10-16T05:48:31;99620.59;;;23.78;65.11
34031;BME280;20319;28.466;-16.274;2022-10-16T05:51:00;99628.09;;;23.83;65.26
34031;BME280;20319;28.466;-16.274;2022-10-16T05:53:29;99636.50;;;23.81;65.27
34031;BME280;20319;28.466;-16.274;2022-10-16T05:55:56;99630.97;;;23.76;65.28
34031;BME280;20319;28.466;-16.274;2022-10-16T05:58:22;99639.44;;;23.75;65.56
34031;BME280;20319;28.466;-16.274;2022-10-16T06:01:04;99637.16;;;23.72;65.27
34031;BME280;20319;28.466;-16.274;2022-10-16T06:03:30;99613.56;;;23.54;65.30
34031;BME280;20319;28.466;-16.274;2022-10-16T06:05:55;99636.22;;;23.66;65.45
34031;BME280;20319;28.466;-16.274;2022-10-16T06:08:22;99639.94;;;23.60;65.59
34031;BME280;20319;28.466;-16.274;2022-10-16T06:10:49;99637.47;;;23.59;65.74
34031;BME280;20319;28.466;-16.274;2022-10-16T06:13:15;99637.59;;;23.52;65.75
34031;BME280;20319;28.466;-16.274;2022-10-16T06:15:42;99641.06;;;23.48;65.94
34031;BME280;20319;28.466;-16.274;2022-10-16T06:18:11;99619.31;;;23.41;65.68
34031;BME280;20319;28.466;-16.274;2022-10-16T06:20:37;99638.41;;;23.53;65.54
34031;BME280;20319;28.466;-16.274;2022-10-16T06:23:03;99634.38;;;23.55;65.37
34031;BME280;20319;28.466;-16.274;2022-10-16T06:25:32;99624.81;;;23.58;65.43
34031;BME280;20319;28.466;-16.274;2022-10-16T06:27:58;99628.50;;;23.63;65.01
34031;BME280;20319;28.466;-16.274;2022-10-16T06:30:23;99641.47;;;23.68;65.02
34031;BME280;20319;28.466;-16.274;2022-10-16T06:32:49;99643.25;;;23.62;64.76
34031;BME280;20319;28.466;-16.274;2022-10-16T06:35:14;99643.41;;;23.56;64.77
34031;BME280;20319;28.466;-16.274;2022-10-16T06:37:40;99644.03;;;23.46;65.14
34031;BME280;20319;28.466;-16.274;2022-10-16T06:40:06;99639.84;;;23.55;65.32
34031;BME280;20319;28.466;-16.274;2022-10-16T06:42:32;99642.47;;;23.50;65.49
34031;BME280;20319;28.466;-16.274;2022-10-16T06:44:58;99640.94;;;23.54;65.55
34031;BME280;20319;28.466;-16.274;2022-10-16T06:47:23;99655.03;;;23.63;65.33
34031;BME280;20319;28.466;-16.274;2022-10-16T06:49:49;99637.47;;;23.59;65.33
34031;BME280;20319;28.466;-16.274;2022-10-16T06:52:14;99651.09;;;23.70;65.50
34031;BME280;20319;28.466;-16.274;2022-10-16T06:54:40;99655.38;;;23.78;65.34
34031;BME280;20319;28.466;-16.274;2022-10-16T06:57:05;99648.66;;;23.85;65.18
34031;BME280;20319;28.466;-16.274;2022-10-16T06:59:31;99657.22;;;23.89;65.22
34031;BME280;20319;28.466;-16.274;2022-10-16T07:01:57;99650.53;;;23.96;65.44
34031;BME280;20319;28.466;-16.274;2022-10-16T07:04:22;99660.78;;;24.01;65.02
34031;BME280;20319;28.466;-16.274;2022-10-16T07:06:48;99658.88;;;24.01;65.22
34031;BME280;20319;28.466;-16.274;2022-10-16T07:09:13;99650.31;;;23.98;65.14
34031;BME280;20319;28.466;-16.274;2022-10-16T07:11:39;99665.50;;;24.05;65.55
34031;BME280;20319;28.466;-16.274;2022-10-16T07:14:18;99663.84;;;24.04;65.35
34031;BME280;20319;28.466;-16.274;2022-10-16T07:16:44;99663.97;;;24.09;65.75
34031;BME280;20319;28.466;-16.274;2022-10-16T07:19:10;99671.19;;;24.15;65.60
34031;BME280;20319;28.466;-16.274;2022-10-16T07:21:37;99672.94;;;24.21;65.12
34031;BME280;20319;28.466;-16.274;2022-10-16T07:24:05;99676.03;;;24.25;65.17
34031;BME280;20319;28.466;-16.274;2022-10-16T07:26:34;99678.03;;;24.29;65.12
34031;BME280;20319;28.466;-16.274;2022-10-16T07:29:00;99684.69;;;24.33;64.97
34031;BME280;20319;28.466;-16.274;2022-10-16T07:31:27;99678.72;;;24.36;65.32
34031;BME280;20319;28.466;-16.274;2022-10-16T07:33:53;99665.75;;;24.32;65.08
34031;BME280;20319;28.466;-16.274;2022-10-16T07:36:20;99696.41;;;24.45;65.31
34031;BME280;20319;28.466;-16.274;2022-10-16T07:38:46;99692.34;;;24.48;65.09
34031;BME280;20319;28.466;-16.274;2022-10-16T07:41:14;99696.25;;;24.52;64.86
34031;BME280;20319;28.466;-16.274;2022-10-16T07:43:40;99704.81;;;24.55;64.75
34031;BME280;20319;28.466;-16.274;2022-10-16T07:46:10;99697.41;;;24.56;64.77
34031;BME280;20319;28.466;-16.274;2022-10-16T07:48:35;99709.22;;;24.56;65.16
34031;BME280;20319;28.466;-16.274;2022-10-16T07:51:03;99713.03;;;24.55;65.03
34031;BME280;20319;28.466;-16.274;2022-10-16T07:53:29;99720.19;;;24.56;64.64
34031;BME280;20319;28.466;-16.274;2022-10-16T07:56:02;99710.81;;;24.52;64.34
34031;BME280;20319;28.466;-16.274;2022-10-16T07:58:29;99724.59;;;24.57;64.36
34031;BME280;20319;28.466;-16.274;2022-10-16T08:00:55;99729.16;;;24.52;64.40
34031;BME280;20319;28.466;-16.274;2022-10-16T08:03:20;99732.72;;;24.52;64.11
34031;BME280;20319;28.466;-16.274;2022-10-16T08:05:46;99731.88;;;24.52;64.10
34031;BME280;20319;28.466;-16.274;2022-10-16T08:08:13;99732.72;;;24.52;63.46
34031;BME280;20319;28.466;-16.274;2022-10-16T08:10:40;99711.94;;;24.40;63.16
34031;BME280;20319;28.466;-16.274;2022-10-16T08:13:05;99730.91;;;24.58;62.76
34031;BME280;20319;28.466;-16.274;2022-10-16T08:15:31;99724.75;;;24.51;62.55
34031;BME280;20319;28.466;-16.274;2022-10-16T08:17:58;99744.19;;;24.66;62.65
34031;BME280;20319;28.466;-16.274;2022-10-16T08:20:25;99756.69;;;24.73;62.46
34031;BME280;20319;28.466;-16.274;2022-10-16T08:22:51;99749.06;;;24.75;62.19
34031;BME280;20319;28.466;-16.274;2022-10-16T08:25:17;99760.63;;;24.77;61.69
34031;BME280;20319;28.466;-16.274;2022-10-16T08:27:43;99763.53;;;24.71;61.35
34031;BME280;20319;28.466;-16.274;2022-10-16T08:30:10;99753.56;;;24.53;61.15
34031;BME280;20319;28.466;-16.274;2022-10-16T08:32:35;99769.28;;;24.58;61.49
34031;BME280;20319;28.466;-16.274;2022-10-16T08:35:01;99766.63;;;24.63;62.04
34031;BME280;20319;28.466;-16.274;2022-10-16T08:37:36;99767.66;;;24.73;61.99
34031;BME280;20319;28.466;-16.274;2022-10-16T08:40:04;99774.19;;;24.84;62.02
34031;BME280;20319;28.466;-16.274;2022-10-16T08:43:08;99781.06;;;24.87;61.10
34031;BME280;20319;28.466;-16.274;2022-10-16T08:46:12;99781.66;;;24.89;60.95
34031;BME280;20319;28.466;-16.274;2022-10-16T08:48:45;99783.41;;;24.95;60.96
34031;BME280;20319;28.466;-16.274;2022-10-16T08:51:24;99794.97;;;24.97;61.04
34031;BME280;20319;28.466;-16.274;2022-10-16T08:54:03;99792.31;;;25.02;60.54
34031;BME280;20319;28.466;-16.274;2022-10-16T08:56:29;99798.47;;;25.09;60.88
34031;BME280;20319;28.466;-16.274;2022-10-16T08:58:57;99777.53;;;25.03;60.66
34031;BME280;20319;28.466;-16.274;2022-10-16T09:01:25;99800.28;;;25.20;60.35
34031;BME280;20319;28.466;-16.274;2022-10-16T09:14:55;99796.34;;;25.44;62.53
34031;BME280;20319;28.466;-16.274;2022-10-16T09:20:47;99802.50;;;25.51;62.82
34031;BME280;20319;28.466;-16.274;2022-10-16T09:23:35;99799.25;;;25.54;63.09
34031;BME280;20319;28.466;-16.274;2022-10-16T09:26:02;99800.13;;;25.59;62.98
34031;BME280;20319;28.466;-16.274;2022-10-16T09:28:29;99807.63;;;25.64;62.59
34031;BME280;20319;28.466;-16.274;2022-10-16T09:30:54;99806.88;;;25.68;62.78
34031;BME280;20319;28.466;-16.274;2022-10-16T09:33:30;99794.53;;;25.71;62.77
34031;BME280;20319;28.466;-16.274;2022-10-16T09:35:59;99814.00;;;25.86;63.29
34031;BME280;20319;28.466;-16.274;2022-10-16T09:38:32;99813.50;;;25.89;63.21
34031;BME280;20319;28.466;-16.274;2022-10-16T09:41:20;99806.06;;;26.06;62.80
34031;BME280;20319;28.466;-16.274;2022-10-16T09:44:01;99803.56;;;26.04;63.51
34031;BME280;20319;28.466;-16.274;2022-10-16T09:46:33;99804.66;;;26.03;63.32
34031;BME280;20319;28.466;-16.274;2022-10-16T09:51:44;99807.41;;;26.03;63.40
34031;BME280;20319;28.466;-16.274;2022-10-16T09:54:14;99808.88;;;26.11;63.35
34031;BME280;20319;28.466;-16.274;2022-10-16T09:56:40;99803.97;;;26.13;62.61
34031;BME280;20319;28.466;-16.274;2022-10-16T09:59:22;99808.31;;;26.31;62.56
34031;BME280;20319;28.466;-16.274;2022-10-16T10:01:56;99777.22;;;26.30;61.92
34031;BME280;20319;28.466;-16.274;2022-10-16T10:04:38;99794.38;;;26.37;61.39
34031;BME280;20319;28.466;-16.274;2022-10-16T10:07:17;99799.97;;;26.47;61.19
34031;BME280;20319;28.466;-16.274;2022-10-16T10:09:45;99792.94;;;26.56;60.63
34031;BME280;20319;28.466;-16.274;2022-10-16T10:12:20;99787.97;;;26.58;60.17
34031;BME280;20319;28.466;-16.274;2022-10-16T10:14:51;99792.50;;;26.64;59.82
34031;BME280;20319;28.466;-16.274;2022-10-16T10:17:24;99794.78;;;26.72;59.49
34031;BME280;20319;28.466;-16.274;2022-10-16T10:22:43;99801.53;;;26.86;58.89
34031;BME280;20319;28.466;-16.274;2022-10-16T10:30:27;99809.25;;;26.89;60.35
34031;BME280;20319;28.466;-16.274;2022-10-16T10:35:43;99802.44;;;26.97;60.64
34031;BME280;20319;28.466;-16.274;2022-10-16T10:46:50;99828.28;;;27.22;60.55
34031;BME280;20319;28.466;-16.274;2022-10-16T10:55:11;99822.25;;;27.25;61.14
34031;BME280;20319;28.466;-16.274;2022-10-16T10:58:19;99825.34;;;27.29;61.50
34031;BME280;20319;28.466;-16.274;2022-10-16T11:07:05;99820.19;;;27.37;61.28
34031;BME280;20319;28.466;-16.274;2022-10-16T11:09:49;99815.81;;;27.41;61.20
34031;BME280;20319;28.466;-16.274;2022-10-16T11:12:29;99820.19;;;27.37;61.32
34031;BME280;20319;28.466;-16.274;2022-10-16T11:15:12;99819.31;;;27.32;61.65
34031;BME280;20319;28.466;-16.274;2022-10-16T11:17:42;99816.03;;;27.35;61.67
34031;BME280;20319;28.466;-16.274;2022-10-16T11:20:29;99814.44;;;27.44;61.73
34031;BME280;20319;28.466;-16.274;2022-10-16T11:25:32;99826.56;;;27.43;61.86
34031;BME280;20319;28.466;-16.274;2022-10-16T11:28:02;99821.31;;;27.41;61.96
34031;BME280;20319;28.466;-16.274;2022-10-16T11:30:39;99817.75;;;27.46;62.09
34031;BME280;20319;28.466;-16.274;2022-10-16T11:40:48;99816.81;;;27.67;61.85
34031;BME280;20319;28.466;-16.274;2022-10-16T11:43:26;99820.69;;;27.66;61.92
34031;BME280;20319;28.466;-16.274;2022-10-16T11:45:55;99812.66;;;27.65;61.80
34031;BME280;20319;28.466;-16.274;2022-10-16T11:51:41;99817.16;;;27.81;61.66
34031;BME280;20319;28.466;-16.274;2022-10-16T11:56:45;99802.69;;;27.95;61.01
34031;BME280;20319;28.466;-16.274;2022-10-16T12:01:42;99802.97;;;27.94;61.15
34031;BME280;20319;28.466;-16.274;2022-10-16T12:07:14;99797.06;;;27.80;60.94
34031;BME280;20319;28.466;-16.274;2022-10-16T12:09:43;99807.84;;;27.82;60.95
34031;BME280;20319;28.466;-16.274;2022-10-16T12:12:26;99799.59;;;27.87;60.88
34031;BME280;20319;28.466;-16.274;2022-10-16T12:15:25;99792.47;;;27.91;60.84
34031;BME280;20319;28.466;-16.274;2022-10-16T12:17:50;99784.81;;;27.98;60.17
34031;BME280;20319;28.466;-16.274;2022-10-16T12:20:23;99788.34;;;27.88;59.56
34031;BME280;20319;28.466;-16.274;2022-10-16T12:22:50;99786.31;;;27.79;59.82
34031;BME280;20319;28.466;-16.274;2022-10-16T12:25:34;99778.06;;;27.79;59.99
34031;BME280;20319;28.466;-16.274;2022-10-16T12:28:06;99776.13;;;27.84;59.30
34031;BME280;20319;28.466;-16.274;2022-10-16T12:30:52;99777.59;;;27.92;59.66
34031;BME280;20319;28.466;-16.274;2022-10-16T12:33:27;99756.91;;;27.89;59.08
34031;BME280;20319;28.466;-16.274;2022-10-16T12:35:53;99773.25;;;28.06;58.91
34031;BME280;20319;28.466;-16.274;2022-10-16T12:38:30;99773.81;;;28.08;58.92
34031;BME280;20319;28.466;-16.274;2022-10-16T12:43:36;99755.63;;;28.12;58.35
34031;BME280;20319;28.466;-16.274;2022-10-16T12:46:19;99760.34;;;28.16;57.92
34031;BME280;20319;28.466;-16.274;2022-10-16T12:48:47;99748.19;;;28.17;57.16
34031;BME280;20319;28.466;-16.274;2022-10-16T12:54:14;99739.66;;;28.19;57.72
34031;BME280;20319;28.466;-16.274;2022-10-16T12:57:02;99746.88;;;28.25;57.37
34031;BME280;20319;28.466;-16.274;2022-10-16T12:59:35;99744.09;;;28.30;57.46
34031;BME280;20319;28.466;-16.274;2022-10-16T13:02:21;99745.75;;;28.26;57.32
34031;BME280;20319;28.466;-16.274;2022-10-16T13:11:00;99749.63;;;28.35;57.28
34031;BME280;20319;28.466;-16.274;2022-10-16T13:27:46;99719.38;;;28.50;57.17
34031;BME280;20319;28.466;-16.274;2022-10-16T13:30:25;99721.56;;;28.48;57.83
34031;BME280;20319;28.466;-16.274;2022-10-16T13:33:02;99720.72;;;28.47;57.54
34031;BME280;20319;28.466;-16.274;2022-10-16T13:35:31;99714.94;;;28.44;57.63
34031;BME280;20319;28.466;-16.274;2022-10-16T13:38:12;99709.41;;;28.44;57.36
34031;BME280;20319;28.466;-16.274;2022-10-16T13:43:36;99700.34;;;28.58;57.37
34031;BME280;20319;28.466;-16.274;2022-10-16T13:48:31;99695.66;;;28.59;56.37
34031;BME280;20319;28.466;-16.274;2022-10-16T13:51:01;99691.25;;;28.53;56.60
34031;BME280;20319;28.466;-16.274;2022-10-16T13:53:30;99674.09;;;28.46;56.66
34031;BME280;20319;28.466;-16.274;2022-10-16T13:55:56;99686.00;;;28.51;56.48
34031;BME280;20319;28.466;-16.274;2022-10-16T13:58:22;99693.41;;;28.46;57.14
34031;BME280;20319;28.466;-16.274;2022-10-16T14:01:40;99686.78;;;28.42;57.40
34031;BME280;20319;28.466;-16.274;2022-10-16T14:03:43;99679.09;;;28.49;56.97
34031;BME280;20319;28.466;-16.274;2022-10-16T14:06:14;99690.41;;;28.52;56.89
34031;BME280;20319;28.466;-16.274;2022-10-16T14:08:44;99683.81;;;28.53;57.46
34031;BME280;20319;28.466;-16.274;2022-10-16T14:11:11;99678.00;;;28.55;57.40
34031;BME280;20319;28.466;-16.274;2022-10-16T14:13:42;99681.06;;;28.53;57.15
34031;BME280;20319;28.466;-16.274;2022-10-16T14:16:10;99682.41;;;28.51;56.94
34031;BME280;20319;28.466;-16.274;2022-10-16T14:18:40;99683.47;;;28.45;57.16
34031;BME280;20319;28.466;-16.274;2022-10-16T14:21:11;99677.66;;;28.41;56.98
34031;BME280;20319;28.466;-16.274;2022-10-16T14:23:39;99679.06;;;28.39;57.18
34031;BME280;20319;28.466;-16.274;2022-10-16T14:28:38;99676.31;;;28.44;57.72
34031;BME280;20319;28.466;-16.274;2022-10-16T14:33:46;99671.88;;;28.33;57.61
34031;BME280;20319;28.466;-16.274;2022-10-16T14:36:13;99679.31;;;28.32;57.75
34031;BME280;20319;28.466;-16.274;2022-10-16T14:38:42;99668.28;;;28.32;58.30
34031;BME280;20319;28.466;-16.274;2022-10-16T14:41:08;99679.63;;;28.41;58.34
34031;BME280;20319;28.466;-16.274;2022-10-16T14:43:40;99671.06;;;28.37;58.22
34031;BME280;20319;28.466;-16.274;2022-10-16T14:46:20;99658.91;;;28.23;58.47
34031;BME280;20319;28.466;-16.274;2022-10-16T14:48:49;99666.09;;;28.29;58.38
34031;BME280;20319;28.466;-16.274;2022-10-16T14:51:17;99667.72;;;28.25;58.81
34031;BME280;20319;28.466;-16.274;2022-10-16T14:53:43;99675.97;;;28.20;59.01
34031;BME280;20319;28.466;-16.274;2022-10-16T14:56:22;99666.59;;;28.11;58.76
34031;BME280;20319;28.466;-16.274;2022-10-16T14:58:49;99665.75;;;28.06;59.03